Time;durP1;ratioP1;P1;durP2;ratioP2;P2;SDS_P1;SDS_P2;PMS_P1;PMS_P2;Temp;Humidity;BMP_temperature;BMP_pressure;BME280_temperature;BME280_humidity;BME280_pressure;Samples;Min_cycle;Max_cycle;Signal;HPM_P1;HPM_P2
2022/02/18 00:00:26;;;;;;;16.00;2.75;;;5.20;99.90;;;;;;4971439;28;20109;-71
2022/02/18 00:02:52;;;;;;;24.48;2.88;;;5.20;99.90;;;;;;4972443;28;20038;-71
2022/02/18 00:05:19;;;;;;;30.63;4.82;;;5.20;99.90;;;;;;4965373;28;20050;-71
2022/02/18 00:07:44;;;;;;;34.67;3.17;;;5.30;99.90;;;;;;4977268;28;20117;-70
2022/02/18 00:10:11;;;;;;;33.08;4.03;;;5.30;99.90;;;;;;4975373;28;20141;-71
2022/02/18 00:12:37;;;;;;;26.80;3.15;;;5.30;99.90;;;;;;4971509;28;20050;-70
2022/02/18 00:15:05;;;;;;;20.55;3.22;;;5.30;99.90;;;;;;5007574;28;20050;-71
2022/02/18 00:17:31;;;;;;;21.45;3.25;;;5.30;99.90;;;;;;4991133;28;20088;-70
2022/02/18 00:19:56;;;;;;;32.83;3.75;;;5.20;99.90;;;;;;4990898;28;20054;-71
2022/02/18 00:22:23;;;;;;;25.85;3.10;;;5.10;99.90;;;;;;4974513;28;20496;-71
2022/02/18 00:24:49;;;;;;;23.15;3.65;;;5.10;99.90;;;;;;4962048;28;20042;-70
2022/02/18 00:27:15;;;;;;;44.05;4.55;;;5.10;99.90;;;;;;4970251;28;20066;-71
2022/02/18 00:29:42;;;;;;;31.10;3.83;;;5.00;99.90;;;;;;4987468;28;20077;-70
2022/02/18 00:32:08;;;;;;;33.65;5.35;;;5.10;99.90;;;;;;4989199;28;20488;-71
2022/02/18 00:34:38;;;;;;;19.17;3.53;;;5.00;99.90;;;;;;4975170;28;20135;-71
2022/02/18 00:37:05;;;;;;;21.75;3.30;;;5.00;99.90;;;;;;4990590;28;20497;-71
2022/02/18 00:39:32;;;;;;;18.48;3.17;;;5.00;99.90;;;;;;4974246;28;20053;-70
2022/02/18 00:41:58;;;;;;;24.65;3.75;;;4.90;99.90;;;;;;4990455;28;20108;-70
2022/02/18 00:44:24;;;;;;;24.08;3.85;;;4.90;99.90;;;;;;4990354;28;20063;-71
2022/02/18 00:46:51;;;;;;;25.13;3.00;;;4.90;99.90;;;;;;4991481;28;20400;-70
2022/02/18 00:49:19;;;;;;;35.13;3.67;;;4.90;99.90;;;;;;4989773;28;20400;-70
2022/02/18 00:51:46;;;;;;;25.75;3.65;;;4.90;99.90;;;;;;4991124;28;20430;-70
2022/02/18 00:54:12;;;;;;;24.30;2.72;;;4.90;99.90;;;;;;4989992;28;20076;-71
2022/02/18 00:56:41;;;;;;;23.90;3.03;;;4.90;99.90;;;;;;4974492;28;20057;-71
2022/02/18 00:59:07;;;;;;;19.55;3.92;;;4.90;99.90;;;;;;4990354;28;20057;-71
2022/02/18 01:01:34;;;;;;;19.63;3.38;;;4.80;99.90;;;;;;4971314;28;20093;-70
2022/02/18 01:04:00;;;;;;;18.85;2.53;;;4.80;99.90;;;;;;4980070;28;20062;-70
2022/02/18 01:06:26;;;;;;;23.90;3.33;;;4.80;99.90;;;;;;4972857;28;20173;-70
2022/02/18 01:08:53;;;;;;;20.73;2.70;;;4.80;99.90;;;;;;4990954;28;20128;-70
2022/02/18 01:11:19;;;;;;;25.20;3.08;;;4.80;99.90;;;;;;4982818;28;20037;-70
2022/02/18 01:13:45;;;;;;;32.97;3.35;;;4.80;99.90;;;;;;4990087;28;20042;-70
2022/02/18 01:16:10;;;;;;;22.23;2.85;;;4.80;99.90;;;;;;4972645;28;20053;-71
2022/02/18 01:18:37;;;;;;;17.42;2.75;;;4.80;99.90;;;;;;4982021;28;20050;-71
2022/02/18 01:21:03;;;;;;;23.33;3.42;;;4.80;99.90;;;;;;4984319;28;20052;-70
2022/02/18 01:23:29;;;;;;;17.10;3.00;;;4.80;99.90;;;;;;4973400;28;20046;-70
2022/02/18 01:25:55;;;;;;;26.50;3.15;;;4.80;99.90;;;;;;4974182;28;20507;-71
2022/02/18 01:28:21;;;;;;;23.20;2.47;;;4.70;99.90;;;;;;4988479;28;20061;-71
2022/02/18 01:30:47;;;;;;;17.92;2.78;;;4.80;99.90;;;;;;4989666;28;20050;-71
2022/02/18 01:33:13;;;;;;;29.20;2.80;;;4.70;99.90;;;;;;4972785;28;20053;-71
2022/02/18 01:35:40;;;;;;;24.88;2.92;;;4.60;99.90;;;;;;4989753;28;20235;-70
2022/02/18 01:38:06;;;;;;;22.02;2.50;;;4.60;99.90;;;;;;4973556;28;20049;-71
2022/02/18 01:40:32;;;;;;;27.15;4.80;;;4.60;99.90;;;;;;4988131;28;20513;-71
2022/02/18 01:42:59;;;;;;;25.88;3.15;;;4.60;99.90;;;;;;4957773;28;20037;-70
2022/02/18 01:45:25;;;;;;;29.08;3.22;;;4.60;99.90;;;;;;4983550;28;20113;-71
2022/02/18 01:47:51;;;;;;;20.73;3.13;;;4.50;99.90;;;;;;4981254;28;20046;-71
2022/02/18 01:50:17;;;;;;;19.73;2.47;;;4.50;99.90;;;;;;4988764;28;20057;-71
2022/02/18 01:52:47;;;;;;;26.33;3.50;;;4.50;99.90;;;;;;4981184;28;20108;-71
2022/02/18 01:55:14;;;;;;;21.38;3.15;;;4.50;99.90;;;;;;4984777;28;20053;-70
2022/02/18 01:57:53;;;;;;;25.15;2.78;;;4.50;99.90;;;;;;4957072;28;20143;-71
2022/02/18 02:00:25;;;;;;;18.88;2.20;;;4.50;99.90;;;;;;4990065;28;20121;-71
2022/02/18 02:02:51;;;;;;;28.70;3.17;;;4.40;99.90;;;;;;4971589;28;20065;-70
2022/02/18 02:05:18;;;;;;;27.77;2.90;;;4.40;99.90;;;;;;4989989;28;20129;-70
2022/02/18 02:07:45;;;;;;;26.58;2.75;;;4.40;99.90;;;;;;4971682;28;20045;-70
2022/02/18 02:10:12;;;;;;;15.50;2.78;;;4.30;99.90;;;;;;4974175;28;20091;-70
2022/02/18 02:12:39;;;;;;;15.93;2.95;;;4.30;99.90;;;;;;4988195;28;20374;-71
2022/02/18 02:15:09;;;;;;;24.08;2.67;;;4.30;99.90;;;;;;4972923;28;20107;-70
2022/02/18 02:17:37;;;;;;;26.42;2.85;;;4.30;99.90;;;;;;4972506;28;20519;-70
2022/02/18 02:20:05;;;;;;;20.77;3.47;;;4.20;99.90;;;;;;4988370;28;20763;-71
2022/02/18 02:22:31;;;;;;;29.25;3.60;;;4.20;99.90;;;;;;4988559;28;20050;-71
2022/02/18 02:24:58;;;;;;;19.77;2.53;;;4.20;99.90;;;;;;4988216;28;20056;-71
2022/02/18 02:27:24;;;;;;;19.35;2.25;;;4.10;99.90;;;;;;4989784;28;20408;-71
2022/02/18 02:29:51;;;;;;;25.73;3.17;;;4.10;99.90;;;;;;4987671;28;20045;-71
2022/02/18 02:32:17;;;;;;;24.15;2.80;;;4.10;99.90;;;;;;4977588;28;20050;-71
2022/02/18 02:34:43;;;;;;;24.17;3.83;;;4.10;99.90;;;;;;4935348;28;20072;-71
2022/02/18 02:37:10;;;;;;;18.83;2.60;;;4.10;99.90;;;;;;4988127;28;20042;-71
2022/02/18 02:39:36;;;;;;;27.52;2.97;;;4.00;99.90;;;;;;4983003;28;20121;-71
2022/02/18 02:42:04;;;;;;;20.85;2.35;;;4.00;99.90;;;;;;4982018;28;20052;-71
2022/02/18 02:44:31;;;;;;;20.77;2.92;;;4.00;99.90;;;;;;4988279;28;20046;-70
2022/02/18 02:46:56;;;;;;;21.88;2.08;;;4.00;99.90;;;;;;4988115;28;20041;-70
2022/02/18 02:49:22;;;;;;;19.95;2.65;;;4.00;99.90;;;;;;4987410;28;20041;-70
2022/02/18 02:51:48;;;;;;;20.65;3.08;;;4.00;99.90;;;;;;4988776;28;20042;-71
2022/02/18 02:54:14;;;;;;;31.08;2.60;;;4.00;99.90;;;;;;4992296;28;20336;-70
2022/02/18 02:56:40;;;;;;;23.50;3.35;;;3.90;99.90;;;;;;4992830;28;20519;-70
2022/02/18 02:59:06;;;;;;;19.95;2.60;;;3.90;99.90;;;;;;5008719;28;20054;-70
2022/02/18 03:01:32;;;;;;;24.13;2.35;;;3.90;99.90;;;;;;4992585;28;20123;-71
2022/02/18 03:03:57;;;;;;;24.50;2.45;;;3.80;99.90;;;;;;4975063;28;20038;-70
2022/02/18 03:06:24;;;;;;;20.90;2.33;;;3.80;99.90;;;;;;5009732;28;20057;-71
2022/02/18 03:08:50;;;;;;;18.75;2.75;;;3.80;99.90;;;;;;4990518;28;20172;-70
2022/02/18 03:11:16;;;;;;;18.25;2.88;;;3.80;99.90;;;;;;4976676;28;20068;-70
2022/02/18 03:13:47;;;;;;;17.02;2.50;;;3.80;99.90;;;;;;4992379;28;20489;-71
2022/02/18 03:16:14;;;;;;;20.38;2.47;;;3.80;99.90;;;;;;4991125;28;20057;-70
2022/02/18 03:18:40;;;;;;;18.65;2.05;;;3.80;99.90;;;;;;4990136;28;20070;-71
2022/02/18 03:21:06;;;;;;;10.90;2.22;;;3.90;99.90;;;;;;4988537;28;20057;-71
2022/02/18 03:23:35;;;;;;;18.25;2.28;;;3.80;99.90;;;;;;4984036;28;20089;-70
2022/02/18 03:26:01;;;;;;;16.52;2.03;;;3.90;99.90;;;;;;4987330;28;20056;-71
2022/02/18 03:28:26;;;;;;;21.70;1.95;;;3.90;99.90;;;;;;4959572;28;20053;-71
2022/02/18 03:30:52;;;;;;;16.85;2.50;;;3.90;99.90;;;;;;4991638;28;20388;-70
2022/02/18 03:33:18;;;;;;;19.35;3.22;;;3.90;99.90;;;;;;4962153;28;20095;-70
2022/02/18 03:35:44;;;;;;;28.45;2.85;;;4.00;99.90;;;;;;4992116;28;20806;-70
2022/02/18 03:38:09;;;;;;;11.60;2.22;;;4.00;99.90;;;;;;4973776;28;20053;-70
2022/02/18 03:40:35;;;;;;;17.40;2.95;;;4.00;99.90;;;;;;5011517;28;20054;-70
2022/02/18 03:43:01;;;;;;;19.55;2.65;;;4.00;99.90;;;;;;5011756;28;20049;-70
2022/02/18 03:45:27;;;;;;;15.60;2.72;;;4.00;99.90;;;;;;4976493;28;20221;-70
2022/02/18 03:47:53;;;;;;;21.25;2.22;;;4.00;99.90;;;;;;5009094;28;20169;-70
2022/02/18 03:50:20;;;;;;;12.05;2.67;;;4.00;99.90;;;;;;4991724;28;20042;-70
2022/02/18 03:52:46;;;;;;;20.95;2.60;;;4.00;99.90;;;;;;4979393;28;20077;-70
2022/02/18 03:55:12;;;;;;;12.95;1.83;;;4.00;99.90;;;;;;4988775;28;20138;-70
2022/02/18 03:57:38;;;;;;;22.02;3.00;;;4.00;99.90;;;;;;4991594;28;20049;-70
2022/02/18 04:00:05;;;;;;;13.40;1.73;;;4.00;99.90;;;;;;4990346;28;20049;-71
2022/02/18 04:02:31;;;;;;;20.05;2.20;;;4.00;99.90;;;;;;4991640;28;20493;-70
2022/02/18 04:04:58;;;;;;;25.13;2.10;;;4.00;99.90;;;;;;4990380;28;20041;-70
2022/02/18 04:07:24;;;;;;;17.05;3.17;;;4.00;99.90;;;;;;4992120;28;20095;-70
2022/02/18 04:09:49;;;;;;;13.15;2.05;;;4.00;99.90;;;;;;4991128;28;20042;-70
2022/02/18 04:12:15;;;;;;;13.77;1.63;;;4.00;99.90;;;;;;4990568;28;20045;-70
2022/02/18 04:14:41;;;;;;;16.48;2.30;;;4.00;99.90;;;;;;4990687;28;20041;-70
2022/02/18 04:17:07;;;;;;;11.48;2.15;;;4.00;99.90;;;;;;4990015;28;20056;-70
2022/02/18 04:19:32;;;;;;;16.75;2.28;;;4.00;99.90;;;;;;4971394;28;20054;-70
2022/02/18 04:21:58;;;;;;;16.02;2.13;;;4.00;99.90;;;;;;4970359;28;20047;-70
2022/02/18 04:24:24;;;;;;;9.80;1.60;;;4.00;99.90;;;;;;4988278;28;20073;-70
2022/02/18 04:26:52;;;;;;;15.55;1.52;;;4.10;99.90;;;;;;5008193;28;20046;-70
2022/02/18 04:29:18;;;;;;;14.40;2.58;;;4.10;99.90;;;;;;4987478;28;20520;-70
2022/02/18 04:31:44;;;;;;;14.25;1.90;;;4.10;99.90;;;;;;4988481;28;20062;-70
2022/02/18 04:34:10;;;;;;;21.42;2.78;;;4.20;99.90;;;;;;4989934;28;20448;-70
2022/02/18 04:36:36;;;;;;;21.02;2.30;;;4.20;99.90;;;;;;4991698;28;20049;-70
2022/02/18 04:39:01;;;;;;;8.18;1.13;;;4.20;99.90;;;;;;4985858;28;20053;-70
2022/02/18 04:41:27;;;;;;;26.50;1.92;;;4.30;99.90;;;;;;4991585;28;20038;-70
2022/02/18 04:43:53;;;;;;;22.30;2.22;;;4.30;99.90;;;;;;4973155;28;20038;-70
2022/02/18 04:46:19;;;;;;;20.98;2.35;;;4.30;99.90;;;;;;4991045;28;20042;-70
2022/02/18 04:48:45;;;;;;;10.75;1.60;;;4.30;99.90;;;;;;4983748;28;20046;-70
2022/02/18 04:51:10;;;;;;;16.48;2.17;;;4.30;99.90;;;;;;4992575;28;20077;-70
2022/02/18 04:53:37;;;;;;;14.05;2.17;;;4.30;99.90;;;;;;5008945;28;20042;-70
2022/02/18 04:56:08;;;;;;;10.75;2.03;;;4.30;99.90;;;;;;4973111;28;20117;-70
2022/02/18 04:58:34;;;;;;;16.88;2.92;;;4.30;99.90;;;;;;4975159;28;20075;-71
2022/02/18 05:00:59;;;;;;;15.85;2.10;;;4.30;99.90;;;;;;4988377;28;20461;-70
2022/02/18 05:03:25;;;;;;;18.42;2.55;;;4.30;99.90;;;;;;4991136;28;20054;-70
2022/02/18 05:05:51;;;;;;;17.70;2.95;;;4.30;99.90;;;;;;4990056;28;20112;-70
2022/02/18 05:08:17;;;;;;;16.80;3.00;;;4.30;99.90;;;;;;4974278;28;20053;-71
2022/02/18 05:10:42;;;;;;;12.98;2.60;;;4.30;99.90;;;;;;4977761;28;20448;-70
2022/02/18 05:13:08;;;;;;;18.60;4.18;;;4.30;99.90;;;;;;4957279;28;20042;-71
2022/02/18 05:15:34;;;;;;;11.10;2.10;;;4.30;99.90;;;;;;4990529;28;20052;-70
2022/02/18 05:18:04;;;;;;;23.10;2.45;;;4.40;99.90;;;;;;4972981;28;20473;-70
2022/02/18 05:20:30;;;;;;;22.25;2.58;;;4.40;99.90;;;;;;4974414;28;20132;-70
2022/02/18 05:22:58;;;;;;;16.55;1.80;;;4.40;99.90;;;;;;4972946;28;20109;-70
2022/02/18 05:25:27;;;;;;;11.38;1.73;;;4.40;99.90;;;;;;4974174;28;20129;-70
2022/02/18 05:27:53;;;;;;;10.35;1.40;;;4.50;99.90;;;;;;4989843;28;20524;-70
2022/02/18 05:30:20;;;;;;;19.95;1.88;;;4.50;99.90;;;;;;4972881;28;20125;-71
2022/02/18 05:32:46;;;;;;;15.82;2.13;;;4.60;99.90;;;;;;4989446;28;20054;-70
2022/02/18 05:35:11;;;;;;;13.73;1.70;;;4.60;99.90;;;;;;4989256;28;20046;-71
2022/02/18 05:37:37;;;;;;;14.38;1.70;;;4.60;99.90;;;;;;4990751;28;20496;-70
2022/02/18 05:40:04;;;;;;;14.13;2.53;;;4.60;99.90;;;;;;4988495;28;20496;-70
2022/02/18 05:42:30;;;;;;;18.55;1.80;;;4.60;99.90;;;;;;4990345;28;20912;-70
2022/02/18 05:44:55;;;;;;;12.45;1.95;;;4.60;99.90;;;;;;4975702;28;20116;-70
2022/02/18 05:47:21;;;;;;;6.13;1.55;;;4.60;99.90;;;;;;4987018;28;20073;-70
2022/02/18 05:49:47;;;;;;;12.50;2.00;;;4.60;99.90;;;;;;4980107;28;20065;-70
2022/02/18 05:52:13;;;;;;;9.63;1.65;;;4.60;99.90;;;;;;4959641;28;20136;-70
2022/02/18 05:54:38;;;;;;;16.02;2.28;;;4.60;99.90;;;;;;4968215;28;20042;-70
2022/02/18 05:57:04;;;;;;;11.10;2.22;;;4.70;99.90;;;;;;4977603;28;20120;-70
2022/02/18 05:59:30;;;;;;;15.77;1.95;;;4.70;99.90;;;;;;4992477;28;20109;-70
2022/02/18 06:01:56;;;;;;;10.35;2.47;;;4.70;99.90;;;;;;4966417;28;20056;-69
2022/02/18 06:04:22;;;;;;;10.57;2.20;;;4.70;99.90;;;;;;4981865;28;20097;-70
2022/02/18 06:06:47;;;;;;;8.85;1.50;;;4.80;99.90;;;;;;4975838;28;20100;-70
2022/02/18 06:09:13;;;;;;;11.75;2.30;;;4.80;99.90;;;;;;4988418;28;20459;-69
2022/02/18 06:11:39;;;;;;;13.43;1.92;;;4.80;99.90;;;;;;4990298;28;20547;-69
2022/02/18 06:14:06;;;;;;;17.25;2.97;;;4.90;99.90;;;;;;4971001;28;20042;-69
2022/02/18 06:16:31;;;;;;;12.82;2.53;;;4.90;99.90;;;;;;4989670;28;20050;-69
2022/02/18 06:18:57;;;;;;;15.02;2.85;;;4.90;99.90;;;;;;4988178;28;20046;-68
2022/02/18 06:21:23;;;;;;;10.57;3.05;;;4.90;99.90;;;;;;4989341;28;20042;-68
2022/02/18 06:23:49;;;;;;;29.60;3.90;;;4.90;99.90;;;;;;4988221;28;20125;-68
2022/02/18 06:26:16;;;;;;;14.90;2.65;;;4.90;99.90;;;;;;5006532;28;20065;-68
2022/02/18 06:28:42;;;;;;;20.58;3.20;;;5.00;99.90;;;;;;4989562;28;20054;-68
2022/02/18 06:31:08;;;;;;;18.35;2.90;;;5.00;99.90;;;;;;4987366;28;20046;-67
2022/02/18 06:33:34;;;;;;;17.30;2.92;;;5.00;99.90;;;;;;4973525;28;20164;-67
2022/02/18 06:36:02;;;;;;;20.67;3.30;;;5.00;99.90;;;;;;4987095;28;20042;-67
2022/02/18 06:38:28;;;;;;;27.55;3.50;;;5.00;99.90;;;;;;4983480;28;20054;-67
2022/02/18 06:40:54;;;;;;;26.13;3.85;;;5.00;99.90;;;;;;4980651;28;20049;-66
2022/02/18 06:43:20;;;;;;;18.35;3.08;;;5.10;99.90;;;;;;5002215;28;20046;-66
2022/02/18 06:45:45;;;;;;;17.55;3.10;;;5.00;99.90;;;;;;4979620;28;20477;-66
2022/02/18 06:48:11;;;;;;;30.05;3.53;;;5.00;99.90;;;;;;4988921;28;20432;-67
2022/02/18 06:50:39;;;;;;;31.27;4.50;;;5.00;99.90;;;;;;4995824;28;20038;-66
2022/02/18 06:53:07;;;;;;;23.35;3.83;;;5.00;99.90;;;;;;4987354;28;20041;-66
2022/02/18 06:55:33;;;;;;;23.35;3.40;;;5.00;99.90;;;;;;4988753;28;20133;-66
2022/02/18 06:58:01;;;;;;;28.00;4.55;;;5.00;99.90;;;;;;4970921;28;20117;-66
2022/02/18 07:00:27;;;;;;;22.02;3.88;;;5.00;99.90;;;;;;5006778;28;20065;-66
2022/02/18 07:02:53;;;;;;;22.95;3.38;;;5.00;99.90;;;;;;4987981;28;20038;-66
2022/02/18 07:05:20;;;;;;;24.42;3.35;;;5.00;99.90;;;;;;4988304;28;20042;-66
2022/02/18 07:07:46;;;;;;;21.67;3.70;;;5.00;99.90;;;;;;5006530;28;20041;-66
2022/02/18 07:10:13;;;;;;;21.13;3.35;;;5.00;99.90;;;;;;4975583;28;20054;-66
2022/02/18 07:12:40;;;;;;;15.52;3.30;;;5.00;99.90;;;;;;4984250;28;20047;-66
2022/02/18 07:15:06;;;;;;;15.40;3.40;;;5.00;99.90;;;;;;4984060;28;20402;-66
2022/02/18 07:17:32;;;;;;;21.35;3.58;;;4.90;99.90;;;;;;5002543;28;20120;-66
2022/02/18 07:19:58;;;;;;;20.52;3.50;;;4.90;99.90;;;;;;4971330;28;20444;-66
2022/02/18 07:22:24;;;;;;;20.90;3.33;;;4.90;99.90;;;;;;5006000;28;20038;-67
2022/02/18 07:24:51;;;;;;;23.33;3.13;;;4.90;99.90;;;;;;4989365;28;20126;-67
2022/02/18 07:27:18;;;;;;;23.10;3.70;;;5.00;99.90;;;;;;4986786;28;20077;-67
2022/02/18 07:29:44;;;;;;;14.43;2.97;;;5.00;99.90;;;;;;4989066;28;20038;-67
2022/02/18 07:32:10;;;;;;;15.38;2.55;;;5.00;99.90;;;;;;5003293;28;20046;-67
2022/02/18 07:34:36;;;;;;;18.08;3.03;;;5.10;99.90;;;;;;5006300;28;20558;-67
2022/02/18 07:37:02;;;;;;;13.02;1.77;;;5.10;99.90;;;;;;5020600;28;20054;-68
2022/02/18 07:39:28;;;;;;;4.45;1.40;;;5.10;99.90;;;;;;4995867;28;20412;-68
2022/02/18 07:41:54;;;;;;;28.17;4.20;;;5.10;99.90;;;;;;5009579;28;20085;-67
2022/02/18 07:44:20;;;;;;;6.60;1.70;;;5.20;99.90;;;;;;4979231;28;20050;-67
2022/02/18 07:46:47;;;;;;;10.40;2.20;;;5.20;99.90;;;;;;4990863;28;20042;-67
2022/02/18 07:49:13;;;;;;;15.13;3.05;;;5.20;99.90;;;;;;4990485;28;20054;-67
2022/02/18 07:51:39;;;;;;;10.93;1.83;;;5.20;99.90;;;;;;4990748;28;20034;-67
2022/02/18 07:54:05;;;;;;;8.15;2.42;;;5.20;99.90;;;;;;4973361;28;20047;-67
2022/02/18 07:56:32;;;;;;;6.63;1.50;;;5.20;99.90;;;;;;5002113;28;20883;-66
2022/02/18 07:58:58;;;;;;;8.73;2.13;;;5.20;99.90;;;;;;4990093;28;20042;-67
2022/02/18 08:01:23;;;;;;;23.80;3.60;;;5.30;99.90;;;;;;5003599;28;20452;-67
2022/02/18 08:03:51;;;;;;;14.10;2.35;;;5.20;99.90;;;;;;4987960;28;20046;-67
2022/02/18 08:06:17;;;;;;;5.70;1.63;;;5.20;99.90;;;;;;4989595;28;20049;-67
2022/02/18 08:08:44;;;;;;;19.35;3.50;;;5.30;99.90;;;;;;4997913;28;20049;-67
2022/02/18 08:11:14;;;;;;;11.13;2.50;;;5.30;99.90;;;;;;5006666;28;20523;-67
2022/02/18 08:13:40;;;;;;;15.90;1.92;;;5.30;99.90;;;;;;5003765;28;20042;-67
2022/02/18 08:16:07;;;;;;;10.68;1.83;;;5.40;99.90;;;;;;5004053;28;20038;-68
2022/02/18 08:18:32;;;;;;;16.25;3.22;;;5.40;99.90;;;;;;4988220;28;20046;-68
2022/02/18 08:20:58;;;;;;;16.25;3.63;;;5.50;99.90;;;;;;5016002;28;20400;-67
2022/02/18 08:23:24;;;;;;;8.68;1.48;;;5.50;99.90;;;;;;4987270;28;20130;-68
2022/02/18 08:25:50;;;;;;;7.70;1.75;;;5.60;99.90;;;;;;4988463;28;20176;-68
2022/02/18 08:28:17;;;;;;;10.93;2.05;;;5.60;99.90;;;;;;4983126;28;20054;-68
2022/02/18 08:30:45;;;;;;;23.60;3.95;;;5.60;99.90;;;;;;4970787;28;20424;-68
2022/02/18 08:33:11;;;;;;;27.40;3.08;;;5.70;99.90;;;;;;4956148;28;20042;-68
2022/02/18 08:35:38;;;;;;;8.43;2.35;;;5.70;99.90;;;;;;4989378;28;20567;-68
2022/02/18 08:38:04;;;;;;;6.10;1.83;;;5.70;99.90;;;;;;4989441;28;20042;-68
2022/02/18 08:40:31;;;;;;;8.25;1.85;;;5.70;99.90;;;;;;4998938;28;20031;-68
2022/02/18 08:42:57;;;;;;;14.73;2.55;;;5.80;99.90;;;;;;4981742;28;20042;-68
2022/02/18 08:45:23;;;;;;;11.73;2.72;;;5.80;99.90;;;;;;5004843;28;20591;-68
2022/02/18 08:47:49;;;;;;;10.73;2.00;;;5.80;99.90;;;;;;4987943;28;20508;-67
2022/02/18 08:50:16;;;;;;;11.57;2.97;;;5.80;99.90;;;;;;4986161;28;20550;-68
2022/02/18 08:52:43;;;;;;;11.55;3.35;;;5.90;99.90;;;;;;5007829;28;20405;-68
2022/02/18 08:55:12;;;;;;;16.52;4.70;;;5.90;99.90;;;;;;4988579;28;20038;-67
2022/02/18 08:57:43;;;;;;;12.15;2.60;;;6.00;99.90;;;;;;4990000;28;20147;-67
2022/02/18 09:00:10;;;;;;;8.55;2.17;;;6.00;99.90;;;;;;5008038;28;20341;-67
2022/02/18 09:02:36;;;;;;;7.93;2.50;;;6.00;99.90;;;;;;5004228;28;20049;-67
2022/02/18 09:05:03;;;;;;;10.18;2.00;;;6.10;99.90;;;;;;4998729;28;20066;-66
2022/02/18 09:07:30;;;;;;;19.40;3.85;;;6.00;99.90;;;;;;5005122;28;20037;-66
2022/02/18 09:09:58;;;;;;;31.95;3.90;;;6.10;99.90;;;;;;4987745;28;20046;-67
2022/02/18 09:12:24;;;;;;;22.35;2.10;;;6.10;99.90;;;;;;5006162;28;20050;-66
2022/02/18 09:14:50;;;;;;;19.40;3.55;;;6.10;99.90;;;;;;4986878;28;20485;-66
2022/02/18 09:17:17;;;;;;;10.25;2.85;;;6.10;99.90;;;;;;5004945;28;20096;-67
2022/02/18 09:19:43;;;;;;;23.25;3.90;;;6.10;99.90;;;;;;5005661;28;20045;-67
2022/02/18 09:22:09;;;;;;;25.10;4.57;;;6.20;99.90;;;;;;5006183;28;20050;-67
2022/02/18 09:24:35;;;;;;;7.22;2.95;;;6.10;99.90;;;;;;5002641;28;20053;-66
2022/02/18 09:27:01;;;;;;;11.07;2.80;;;6.20;99.90;;;;;;5006452;28;20392;-66
2022/02/18 09:29:27;;;;;;;20.77;5.03;;;6.20;99.90;;;;;;4988118;28;20041;-67
2022/02/18 09:31:54;;;;;;;25.05;4.85;;;6.20;99.90;;;;;;5007437;28;20034;-67
2022/02/18 09:34:25;;;;;;;26.30;5.70;;;6.30;99.90;;;;;;4985330;28;20386;-67
2022/02/18 09:36:51;;;;;;;28.10;4.75;;;6.20;99.90;;;;;;5004766;28;20038;-67
2022/02/18 09:39:17;;;;;;;26.63;6.40;;;6.20;99.90;;;;;;5003291;28;20440;-67
2022/02/18 09:41:43;;;;;;;20.98;4.53;;;6.30;99.90;;;;;;4999862;28;20061;-67
2022/02/18 09:44:12;;;;;;;11.43;3.40;;;6.30;99.90;;;;;;4988494;28;20042;-69
2022/02/18 09:46:43;;;;;;;14.63;2.97;;;6.30;99.90;;;;;;4978438;28;20121;-67
2022/02/18 09:49:09;;;;;;;21.17;4.53;;;6.30;99.90;;;;;;4997494;28;20057;-67
2022/02/18 09:51:37;;;;;;;9.25;2.13;;;6.40;99.90;;;;;;4981222;28;20182;-67
2022/02/18 09:54:03;;;;;;;14.63;3.55;;;6.40;99.90;;;;;;5002301;28;20451;-67
2022/02/18 09:56:32;;;;;;;14.90;3.65;;;6.50;99.90;;;;;;5001221;28;20127;-67
2022/02/18 09:59:05;;;;;;;20.23;3.47;;;6.50;99.90;;;;;;5003255;28;20559;-67
2022/02/18 10:01:31;;;;;;;17.15;3.60;;;6.50;99.90;;;;;;5001677;28;20069;-67
2022/02/18 10:03:59;;;;;;;9.45;2.60;;;6.60;99.90;;;;;;4986206;28;20046;-67
2022/02/18 10:06:28;;;;;;;6.43;2.95;;;6.70;99.90;;;;;;4993735;28;20048;-67
2022/02/18 10:08:54;;;;;;;10.02;3.45;;;6.70;99.90;;;;;;4972294;28;20068;-67
2022/02/18 10:11:20;;;;;;;7.63;1.30;;;6.70;99.90;;;;;;4976300;28;20050;-69
2022/02/18 10:13:47;;;;;;;8.65;1.35;;;6.70;99.90;;;;;;4989791;28;20120;-69
2022/02/18 10:16:21;;;;;;;2.75;1.08;;;6.80;99.90;;;;;;4987696;28;20121;-69
2022/02/18 10:18:57;;;;;;;11.35;2.15;;;6.80;99.90;;;;;;4989676;28;20550;-69
2022/02/18 10:21:35;;;;;;;4.95;1.13;;;6.90;99.90;;;;;;4987585;28;20065;-69
2022/02/18 10:24:22;;;;;;;8.05;2.35;;;6.90;99.90;;;;;;5009019;28;20510;-69
2022/02/18 10:26:51;;;;;;;3.25;1.50;;;7.00;99.90;;;;;;4978629;28;20050;-70
2022/02/18 10:33:20;;;;;;;3.95;1.38;;;7.10;99.90;;;;;;5006517;28;20121;-69
2022/02/18 10:36:24;;;;;;;6.03;0.82;;;7.20;99.90;;;;;;5006206;28;20111;-69
2022/02/18 10:39:09;;;;;;;4.18;1.40;;;7.30;99.90;;;;;;4987656;28;20057;-69
2022/02/18 10:42:35;;;;;;;8.93;2.15;;;7.40;99.90;;;;;;5006235;28;20058;-69
2022/02/18 10:46:30;;;;;;;11.38;3.58;;;7.40;99.90;;;;;;4982514;23;20642;-69
2022/02/18 10:49:58;;;;;;;8.38;1.67;;;7.60;99.90;;;;;;5000464;28;20057;-68
2022/02/18 10:52:25;;;;;;;6.88;1.67;;;7.60;99.90;;;;;;4975728;28;20048;-68
2022/02/18 10:54:51;;;;;;;10.43;2.20;;;7.80;99.90;;;;;;4988521;28;20447;-68
2022/02/18 10:57:18;;;;;;;2.30;1.25;;;7.80;99.90;;;;;;4988807;28;20048;-69
2022/02/18 11:26:59;;;;;;;9.57;1.52;;;8.70;99.90;;;;;;5007305;28;20058;-68
2022/02/18 11:29:25;;;;;;;5.03;1.90;;;8.70;99.90;;;;;;5015316;23;20061;-68
2022/02/18 11:31:56;;;;;;;8.90;2.00;;;8.70;99.90;;;;;;5006222;28;20048;-68
2022/02/18 11:35:21;;;;;;;7.95;2.08;;;8.80;99.90;;;;;;4996497;28;20130;-68
2022/02/18 11:38:19;;;;;;;12.57;3.30;;;8.90;99.90;;;;;;5028592;28;20045;-68
2022/02/18 11:40:46;;;;;;;3.45;1.05;;;8.90;99.90;;;;;;4908647;28;20046;-68
2022/02/18 11:43:30;;;;;;;9.60;3.00;;;9.00;99.90;;;;;;4992773;28;20053;-68
2022/02/18 11:46:04;;;;;;;10.95;3.20;;;9.00;99.90;;;;;;5000238;28;20049;-68
2022/02/18 11:48:45;;;;;;;7.45;2.53;;;9.10;99.90;;;;;;4991480;28;20065;-68
2022/02/18 11:51:25;;;;;;;;;;;9.10;99.90;;;;;;4995612;28;20046;-69
2022/02/18 11:53:53;;;;;;;4.55;2.15;;;9.10;99.90;;;;;;5010541;28;19971;-68
2022/02/18 11:56:41;;;;;;;2.33;0.88;;;9.20;99.90;;;;;;4991866;28;20050;-69
2022/02/18 11:59:54;;;;;;;3.35;1.17;;;9.30;99.90;;;;;;5022451;28;20052;-68
2022/02/18 12:02:40;;;;;;;9.27;2.58;;;9.30;99.90;;;;;;5000830;28;20495;-68
2022/02/18 12:05:18;;;;;;;1.75;1.48;;;9.30;99.90;;;;;;4993814;28;20352;-68
2022/02/18 12:07:54;;;;;;;2.78;1.30;;;9.40;99.90;;;;;;4993040;28;20085;-69
2022/02/18 12:10:53;;;;;;;5.43;1.45;;;9.50;99.90;;;;;;4991684;28;20057;-69
2022/02/18 12:13:19;;;;;;;2.45;1.08;;;9.60;99.90;;;;;;4998330;28;20048;-69
2022/02/18 12:15:48;;;;;;;4.75;1.77;;;9.60;99.90;;;;;;5010669;28;20046;-68
2022/02/18 12:18:26;;;;;;;2.72;1.35;;;9.70;99.90;;;;;;5008770;28;20641;-68
2022/02/18 12:21:11;;;;;;;1.40;1.20;;;9.70;99.90;;;;;;5010237;28;20558;-68
2022/02/18 12:23:42;;;;;;;2.42;0.88;;;9.80;99.90;;;;;;5009071;28;20282;-70
2022/02/18 12:29:55;;;;;;;0.80;0.65;;;10.00;99.90;;;;;;5026074;28;20494;-69
2022/02/18 12:32:36;;;;;;;3.50;0.95;;;10.00;99.90;;;;;;5004015;28;20042;-69
2022/02/18 12:35:34;;;;;;;1.80;1.05;;;10.10;99.90;;;;;;4993533;28;20384;-69
2022/02/18 12:42:23;;;;;;;3.75;1.20;;;10.20;99.90;;;;;;4974221;23;20149;-69
2022/02/18 12:46:03;;;;;;;0.60;0.60;;;10.40;99.90;;;;;;4987805;28;20062;-69
2022/02/18 12:48:59;;;;;;;0.82;0.82;;;10.30;99.90;;;;;;4994442;23;20056;-69
2022/02/18 12:51:32;;;;;;;2.85;1.15;;;10.40;99.90;;;;;;4956456;28;20054;-69
2022/02/18 12:54:37;;;;;;;1.40;1.25;;;10.40;99.90;;;;;;4967433;28;20047;-69
2022/02/18 13:03:14;;;;;;;1.65;0.77;;;10.40;99.90;;;;;;4976960;28;20054;-69
2022/02/18 13:05:40;;;;;;;0.73;0.63;;;10.40;99.90;;;;;;4949670;28;20042;-69
2022/02/18 13:08:17;;;;;;;3.42;1.10;;;10.50;99.90;;;;;;4934007;28;20046;-69
2022/02/18 13:10:43;;;;;;;1.55;0.73;;;10.50;99.90;;;;;;4962716;28;20054;-70
2022/02/18 13:13:34;;;;;;;1.88;0.60;;;10.50;99.90;;;;;;4960409;28;20038;-69
2022/02/18 13:15:59;;;;;;;3.75;0.73;;;10.50;99.90;;;;;;4937691;28;20077;-69
2022/02/18 13:18:25;;;;;;;0.85;0.85;;;10.50;99.90;;;;;;4959027;28;20046;-69
2022/02/18 13:20:53;;;;;;;3.22;1.02;;;10.50;99.90;;;;;;4906513;28;20049;-70
2022/02/18 13:23:25;;;;;;;0.95;0.60;;;10.40;99.90;;;;;;4979567;28;20053;-70
2022/02/18 13:26:06;;;;;;;2.67;0.88;;;10.50;99.90;;;;;;4984001;28;20103;-70
2022/02/18 13:28:39;;;;;;;0.88;0.50;;;10.40;99.90;;;;;;4969220;28;20073;-70
2022/02/18 13:31:11;;;;;;;6.90;1.00;;;10.30;99.90;;;;;;4968407;28;20090;-70
2022/02/18 13:33:43;;;;;;;0.77;0.47;;;10.20;99.90;;;;;;4966699;28;20058;-70
2022/02/18 13:36:13;;;;;;;7.45;0.68;;;10.10;99.90;;;;;;4961483;28;20070;-69
2022/02/18 13:38:59;;;;;;;1.27;0.55;;;10.00;99.90;;;;;;4950454;28;20096;-70
2022/02/18 13:41:32;;;;;;;4.78;0.63;;;9.90;99.90;;;;;;4936241;28;20051;-70
2022/02/18 13:44:02;;;;;;;3.88;0.73;;;9.80;99.90;;;;;;4950742;28;20043;-70